Time;durP1;ratioP1;P1;durP2;ratioP2;P2;SDS_P1;SDS_P2;PMS_P1;PMS_P2;Temp;Humidity;BMP_temperature;BMP_pressure;BME280_temperature;BME280_humidity;BME280_pressure;Samples;Min_cycle;Max_cycle;Signal;HPM_P1;HPM_P2
2023/02/27 00:00:17;;;;;;;;;;;4.90;61.60;;;3.59;49.54;101695.09;5010661;28;19929;-77
2023/02/27 00:02:47;;;;;;;;;;;4.90;61.60;;;3.57;49.89;101697.06;5000525;28;19930;-76
2023/02/27 00:05:14;;;;;;;;;;;4.90;61.80;;;3.53;49.95;101701.75;5002743;28;19929;-76
2023/02/27 00:07:41;;;;;;;;;;;4.90;61.80;;;3.53;49.89;101701.75;5008335;28;19937;-77
2023/02/27 00:10:10;;;;;;;;;;;4.90;61.70;;;3.53;49.71;101712.31;5010184;28;19933;-76
2023/02/27 00:12:37;;;;;;;;;;;4.90;61.70;;;3.51;49.97;101702.84;5009518;28;20305;-77
2023/02/27 00:15:06;;;;;;;;;;;4.90;61.80;;;3.47;50.01;101702.31;5009398;28;19972;-76
2023/02/27 00:17:33;;;;;;;;;;;4.90;61.80;;;3.44;50.44;101699.09;5008521;28;19936;-76
2023/02/27 00:20:02;;;;;;;;;;;4.90;62.40;;;3.43;50.25;101698.25;5008829;28;19932;-77
2023/02/27 00:22:29;;;;;;;;;;;4.80;62.20;;;3.44;50.37;101699.91;5007395;28;19940;-77
2023/02/27 00:24:56;;;;;;;;;;;4.80;62.30;;;3.47;50.34;101697.03;5008791;28;19980;-76
2023/02/27 00:27:23;;;;;;;;;;;4.80;62.30;;;3.50;50.51;101696.72;5009922;28;20404;-77
2023/02/27 00:29:50;;;;;;;;;;;4.80;62.50;;;3.52;50.31;101700.09;5009957;28;20445;-77
2023/02/27 00:32:19;;;;;;;;;;;4.80;62.60;;;3.54;50.60;101695.50;5009336;28;19937;-76
2023/02/27 00:34:47;;;;;;;;;;;4.80;62.80;;;3.56;50.71;101701.50;5002584;28;19926;-76
2023/02/27 00:37:15;;;;;;;;;;;4.90;62.90;;;3.53;50.56;101701.75;4992228;28;19952;-77
2023/02/27 00:39:42;;;;;;;;;;;4.90;63.00;;;3.49;51.00;101700.34;4991427;28;19960;-77
2023/02/27 00:42:09;;;;;;;;;;;4.80;63.00;;;3.50;51.02;101701.19;4991676;28;19929;-77
2023/02/27 00:44:37;;;;;;;;;;;4.90;63.10;;;3.48;50.92;101698.69;5009321;28;19936;-76
2023/02/27 00:47:06;;;;;;;;;;;4.90;63.20;;;3.47;50.83;101701.47;4994743;28;19936;-76
2023/02/27 00:49:33;;;;;;;;;;;4.90;63.10;;;3.48;50.93;101692.56;5000062;28;19929;-77
2023/02/27 00:52:01;;;;;;;;;;;4.90;63.00;;;3.52;50.83;101700.09;5008918;28;19925;-76
2023/02/27 00:54:29;;;;;;;;;;;4.80;62.80;;;3.50;50.79;101691.47;4990349;28;19936;-76
2023/02/27 00:56:56;;;;;;;;;;;4.80;63.00;;;3.49;50.72;101700.34;4992028;28;20380;-77
2023/02/27 00:59:23;;;;;;;;;;;4.80;63.20;;;3.50;50.91;101694.09;4976351;28;19976;-77
2023/02/27 01:01:52;;;;;;;;;;;4.80;63.10;;;3.46;51.00;101687.41;5007302;28;20413;-77
2023/02/27 01:04:19;;;;;;;;;;;4.80;63.10;;;3.43;50.90;101690.34;4994641;28;20254;-76
2023/02/27 01:06:45;;;;;;;;;;;4.80;63.20;;;3.42;50.87;101693.97;5009528;28;19933;-76
2023/02/27 01:09:13;;;;;;;;;;;4.80;63.10;;;3.44;51.03;101693.81;5009003;28;20025;-77
2023/02/27 01:11:41;;;;;;;;;;;4.80;63.20;;;3.46;50.74;101691.88;5009207;28;20428;-77
2023/02/27 01:14:08;;;;;;;;;;;4.80;63.20;;;3.46;50.87;101690.06;4987175;28;19929;-76
2023/02/27 01:16:35;;;;;;;;;;;4.80;63.10;;;3.47;50.92;101691.75;5008423;28;19926;-77
2023/02/27 01:19:02;;;;;;;;;;;4.80;63.30;;;3.45;50.96;101693.66;4987041;28;20308;-76
2023/02/27 01:21:29;;;;;;;;;;;4.80;63.40;;;3.44;51.03;101692.00;4990945;28;19930;-76
2023/02/27 01:23:56;;;;;;;;;;;4.80;63.60;;;3.41;51.37;101694.06;4991050;28;20453;-76
2023/02/27 01:26:25;;;;;;;;;;;4.80;63.90;;;3.43;51.35;101690.34;5008720;28;19936;-77
2023/02/27 01:28:54;;;;;;;;;;;4.80;64.00;;;3.40;51.65;101690.59;5008688;28;20538;-77
2023/02/27 01:31:21;;;;;;;;;;;4.70;64.20;;;3.38;51.68;101689.91;4991723;28;19926;-76
2023/02/27 01:33:48;;;;;;;;;;;4.70;64.30;;;3.41;51.82;101692.25;5001524;28;19945;-76
2023/02/27 01:36:15;;;;;;;;;;;4.70;64.60;;;3.44;51.43;101694.66;5005903;28;20385;-77
2023/02/27 01:38:42;;;;;;;;;;;4.70;64.60;;;3.42;51.72;101691.31;5010833;28;19951;-76
2023/02/27 01:41:09;;;;;;;;;;;4.60;64.80;;;3.44;51.61;101697.28;5013021;28;19933;-76
2023/02/27 01:43:56;;;;;;;;;;;4.60;64.50;;;3.41;51.69;101691.44;5012360;28;19926;-77
2023/02/27 01:46:24;;;;;;;;;;;4.70;64.70;;;3.39;51.56;101694.22;4993677;28;20017;-76
2023/02/27 01:48:53;;;;;;;;;;;4.70;64.60;;;3.36;51.88;101699.75;5012745;28;19932;-76
2023/02/27 01:51:21;;;;;;;;;;;4.60;64.80;;;3.38;52.06;101697.81;5011308;28;19940;-76
2023/02/27 01:53:52;;;;;;;;;;;4.60;64.80;;;3.32;52.34;101693.94;5010967;28;19932;-76
2023/02/27 01:56:21;;;;;;;;;;;4.60;65.00;;;3.34;52.23;101697.25;5011476;28;19941;-77
2023/02/27 01:58:49;;;;;;;;;;;4.60;65.00;;;3.34;52.07;101683.25;4994529;28;19964;-77
2023/02/27 02:01:19;;;;;;;;;;;4.60;65.20;;;3.33;52.07;101695.59;4990569;28;19929;-77
2023/02/27 02:03:53;;;;;;;;;;;4.60;65.10;;;3.35;52.31;101685.72;5012444;28;20393;-77
2023/02/27 02:06:20;;;;;;;;;;;4.60;65.30;;;3.32;52.28;101695.72;5007305;28;19972;-76
2023/02/27 02:08:49;;;;;;;;;;;4.70;65.30;;;3.35;52.20;101687.53;5012796;28;19925;-76
2023/02/27 02:11:17;;;;;;;;;;;4.60;65.20;;;3.36;51.94;101689.19;4994219;28;19925;-76
2023/02/27 02:13:45;;;;;;;;;;;4.60;65.00;;;3.31;51.98;101697.50;5004958;28;20028;-76
2023/02/27 02:16:36;;;;;;;;;;;4.60;64.90;;;3.29;52.28;101699.44;5011864;28;19929;-77
2023/02/27 02:19:15;;;;;;;;;;;4.60;65.00;;;3.26;52.24;101698.88;4992645;28;20410;-76
2023/02/27 02:22:20;;;;;;;;;;;4.60;65.00;;;3.23;52.01;101692.09;4993334;28;20012;-76
2023/02/27 02:25:19;;;;;;;;;;;4.60;65.00;;;3.21;52.25;101693.16;4970049;28;19930;-77
2023/02/27 02:27:55;;;;;;;;;;;4.50;65.00;;;3.19;52.13;101700.38;4986566;28;19926;-77
2023/02/27 02:31:10;;;;;;;;;;;4.50;65.00;;;3.18;52.23;101690.81;5010228;28;20301;-77
2023/02/27 02:34:08;;;;;;;;;;;4.50;65.00;;;3.15;52.38;101696.34;4990091;28;20017;-77
2023/02/27 02:37:08;;;;;;;;;;;4.50;65.00;;;3.15;52.37;101691.06;4986384;28;19936;-76
2023/02/27 02:39:55;;;;;;;;;;;4.50;65.20;;;3.14;52.42;101699.94;5004348;28;19930;-77
2023/02/27 02:42:25;;;;;;;;;;;4.50;65.10;;;3.15;52.52;101702.44;5003222;28;19941;-76
2023/02/27 02:45:03;;;;;;;;;;;4.50;65.20;;;3.15;52.49;101697.19;4989134;28;19939;-76
2023/02/27 02:47:35;;;;;;;;;;;4.50;65.20;;;3.13;52.33;101704.41;4993254;28;19937;-76
2023/02/27 02:50:08;;;;;;;;;;;4.50;65.20;;;3.12;52.28;101707.13;4990866;28;19932;-77
2023/02/27 02:52:43;;;;;;;;;;;4.50;65.10;;;3.11;52.38;101708.94;4976458;28;19936;-77
2023/02/27 02:55:18;;;;;;;;;;;4.50;65.20;;;3.09;52.33;101701.19;4993336;28;19940;-76
2023/02/27 02:57:48;;;;;;;;;;;4.50;65.20;;;3.04;52.82;101700.75;4992900;28;19929;-76
2023/02/27 03:00:18;;;;;;;;;;;4.40;65.30;;;3.03;52.83;101693.81;4990191;28;19933;-76
2023/02/27 03:02:48;;;;;;;;;;;4.40;65.30;;;3.00;52.72;101707.25;5006380;28;19995;-77
2023/02/27 03:05:18;;;;;;;;;;;4.40;65.20;;;2.96;52.67;101703.19;4993041;28;20020;-76
2023/02/27 03:07:50;;;;;;;;;;;4.40;65.20;;;2.96;52.51;101708.47;5010977;28;20309;-77
2023/02/27 03:10:21;;;;;;;;;;;4.40;65.20;;;2.96;52.51;101705.81;4983414;28;19948;-77
2023/02/27 03:12:52;;;;;;;;;;;4.40;65.20;;;2.95;52.57;101701.53;4993026;28;19984;-77
2023/02/27 03:15:21;;;;;;;;;;;4.40;65.10;;;2.92;52.66;101708.84;4993882;28;20016;-76
2023/02/27 03:17:50;;;;;;;;;;;4.30;65.20;;;2.90;52.59;101698.44;4992466;28;19929;-77
2023/02/27 03:20:21;;;;;;;;;;;4.30;65.20;;;2.90;52.58;101703.72;5011787;28;19929;-78
2023/02/27 03:22:52;;;;;;;;;;;4.30;65.20;;;2.88;52.50;101704.81;4992444;28;20008;-76
2023/02/27 03:25:23;;;;;;;;;;;4.30;65.20;;;2.86;52.64;101704.09;4984536;28;19933;-76
2023/02/27 03:27:56;;;;;;;;;;;4.30;65.40;;;2.88;52.55;101705.66;4993000;28;19940;-76
2023/02/27 03:30:27;;;;;;;;;;;4.20;65.40;;;2.91;52.60;101708.03;4993481;28;19983;-77
2023/02/27 03:32:59;;;;;;;;;;;4.20;65.40;;;2.88;52.60;101699.53;5008428;28;20299;-76
2023/02/27 03:35:30;;;;;;;;;;;4.30;65.50;;;2.88;52.88;101702.16;4996522;28;20290;-77
2023/02/27 03:38:02;;;;;;;;;;;4.20;65.60;;;2.85;52.80;101700.66;4993429;28;20032;-77
2023/02/27 03:40:33;;;;;;;;;;;4.20;65.80;;;2.84;53.21;101704.25;5009644;28;19930;-77
2023/02/27 03:43:10;;;;;;;;;;;4.20;66.00;;;2.86;53.33;101709.38;4992617;28;20032;-76
2023/02/27 03:45:52;;;;;;;;;;;4.20;66.20;;;2.89;53.10;101711.75;4985855;28;20007;-77
2023/02/27 03:48:19;;;;;;;;;;;4.20;66.20;;;2.84;53.44;101704.25;4995574;28;20444;-76
2023/02/27 03:50:46;;;;;;;;;;;4.20;66.40;;;2.83;53.11;101708.69;4992692;28;20386;-76
2023/02/27 03:53:19;;;;;;;;;;;4.20;66.30;;;2.89;53.22;101709.13;5010045;28;19941;-76
2023/02/27 03:55:50;;;;;;;;;;;4.20;66.50;;;2.83;53.19;101707.81;4991348;28;19930;-77
2023/02/27 03:58:17;;;;;;;;;;;4.20;66.60;;;2.88;53.59;101705.66;5010422;28;19929;-77
2023/02/27 04:00:44;;;;;;;;;;;4.10;67.10;;;2.87;53.42;101705.78;4990576;28;19976;-77
2023/02/27 04:03:11;;;;;;;;;;;4.10;67.00;;;2.87;53.46;101709.25;4985863;28;20530;-77
2023/02/27 04:05:38;;;;;;;;;;;4.10;67.00;;;2.90;53.51;101706.34;4991819;28;19933;-76
2023/02/27 04:08:33;;;;;;;;;;;4.10;67.20;;;2.89;53.60;101706.50;4989853;28;19929;-76
2023/02/27 04:11:15;;;;;;;;;;;4.10;67.10;;;2.86;53.60;101712.00;4991234;28;19929;-77
2023/02/27 04:13:50;;;;;;;;;;;4.10;67.10;;;2.89;53.50;101717.88;5009015;28;19955;-77
2023/02/27 04:16:39;;;;;;;;;;;4.20;67.20;;;2.90;53.70;101716.91;5010152;28;19929;-76
2023/02/27 04:19:17;;;;;;;;;;;4.10;67.30;;;2.92;53.49;101720.22;5009832;28;20337;-76
2023/02/27 04:21:49;;;;;;;;;;;4.20;67.00;;;2.89;53.21;101724.94;5009760;28;19934;-76
2023/02/27 04:24:27;;;;;;;;;;;4.20;66.80;;;2.87;53.46;101727.69;5009127;28;19930;-76
2023/02/27 04:26:58;;;;;;;;;;;4.20;66.80;;;2.84;53.22;101720.06;5010110;28;19972;-76
2023/02/27 04:29:34;;;;;;;;;;;4.10;66.80;;;2.83;53.34;101724.50;5010176;28;19925;-77
2023/02/27 04:32:04;;;;;;;;;;;4.20;66.70;;;2.83;53.30;101732.41;5009877;28;20378;-76
2023/02/27 04:34:35;;;;;;;;;;;4.20;66.70;;;2.78;53.36;101724.06;5008717;28;20027;-77
2023/02/27 04:37:07;;;;;;;;;;;4.20;66.80;;;2.76;53.68;101733.03;5009120;28;19933;-76
2023/02/27 04:39:37;;;;;;;;;;;4.10;66.70;;;2.74;53.62;101734.97;5010368;28;20330;-76
2023/02/27 04:42:09;;;;;;;;;;;4.10;66.90;;;2.76;53.35;101730.41;5009230;28;19988;-76
2023/02/27 04:44:37;;;;;;;;;;;4.10;66.80;;;2.69;53.57;101737.16;5009632;28;20004;-76
2023/02/27 04:47:07;;;;;;;;;;;4.10;66.80;;;2.70;53.69;101738.81;5008531;28;19930;-76
2023/02/27 04:49:38;;;;;;;;;;;4.10;66.80;;;2.70;53.61;101738.81;5009682;28;19932;-76
2023/02/27 04:52:09;;;;;;;;;;;4.10;66.70;;;2.69;53.53;101745.06;5008983;28;19939;-76
2023/02/27 04:54:40;;;;;;;;;;;4.10;66.80;;;2.69;53.57;101745.06;4997924;28;20033;-76
2023/02/27 04:57:12;;;;;;;;;;;4.10;66.80;;;2.73;53.47;101756.97;5008731;28;19929;-77
2023/02/27 04:59:42;;;;;;;;;;;4.10;66.60;;;2.69;53.67;101753.78;5005560;28;19929;-77
2023/02/27 05:02:13;;;;;;;;;;;4.10;66.60;;;2.72;53.65;101745.63;5008627;28;20386;-76
2023/02/27 05:04:42;;;;;;;;;;;4.20;66.60;;;2.74;53.61;101750.78;5002482;28;19926;-76
2023/02/27 05:07:12;;;;;;;;;;;4.10;66.80;;;2.74;53.44;101756.88;5008679;28;19930;-77
2023/02/27 05:09:42;;;;;;;;;;;4.10;66.60;;;2.69;53.45;101759.06;5009499;28;19929;-76
2023/02/27 05:12:16;;;;;;;;;;;4.00;66.60;;;2.69;53.24;101759.06;5010137;28;19925;-77
2023/02/27 05:14:48;;;;;;;;;;;4.00;66.40;;;2.69;53.50;101763.50;4998820;28;20012;-76
2023/02/27 05:17:19;;;;;;;;;;;4.10;66.60;;;2.72;53.15;101758.78;4994141;28;19930;-76
2023/02/27 05:19:47;;;;;;;;;;;4.00;66.40;;;2.67;52.97;101760.97;5013010;28;19925;-76
2023/02/27 05:22:23;;;;;;;;;;;3.90;66.40;;;2.65;53.27;101764.72;5009034;28;19933;-77
2023/02/27 05:24:53;;;;;;;;;;;4.00;66.40;;;2.60;53.58;101764.25;5008778;28;19976;-76
2023/02/27 05:27:30;;;;;;;;;;;4.00;66.60;;;2.56;53.81;101768.94;5012007;28;19929;-76
2023/02/27 05:29:59;;;;;;;;;;;3.90;66.70;;;2.53;53.50;101770.00;5013162;28;19936;-76
2023/02/27 05:32:33;;;;;;;;;;;3.90;66.70;;;2.49;53.66;101779.16;5011993;28;19934;-77
2023/02/27 05:35:07;;;;;;;;;;;3.90;66.60;;;2.47;53.54;101774.94;5012671;28;19933;-77
2023/02/27 05:37:37;;;;;;;;;;;3.90;66.60;;;2.45;53.55;101763.72;5004487;28;19932;-77
2023/02/27 05:40:07;;;;;;;;;;;3.90;66.60;;;2.49;53.44;101771.25;4999306;28;20330;-76
2023/02/27 05:42:39;;;;;;;;;;;3.90;66.60;;;2.51;53.25;101771.94;4997764;28;20008;-77
2023/02/27 05:45:09;;;;;;;;;;;3.80;66.40;;;2.51;53.23;101776.38;5012730;28;19930;-77
2023/02/27 05:47:41;;;;;;;;;;;3.80;66.40;;;2.53;53.04;101764.75;5010236;28;19930;-76
2023/02/27 05:50:11;;;;;;;;;;;3.80;66.30;;;2.51;53.22;101771.94;5013155;28;19929;-76
2023/02/27 05:52:40;;;;;;;;;;;3.80;66.40;;;2.47;53.10;101781.06;5010719;28;19937;-77
2023/02/27 05:55:12;;;;;;;;;;;3.80;66.20;;;2.38;53.52;101779.16;5013542;28;20032;-77
2023/02/27 05:57:44;;;;;;;;;;;3.80;66.40;;;2.35;53.54;101786.50;5012086;28;19933;-78
2023/02/27 06:00:15;;;;;;;;;;;3.80;66.50;;;2.35;53.47;101786.50;5009738;28;19925;-78
2023/02/27 06:02:43;;;;;;;;;;;3.70;66.40;;;2.36;53.37;101789.00;5009477;28;19933;-79
2023/02/27 06:05:14;;;;;;;;;;;3.70;66.30;;;2.36;53.16;101794.25;5004212;28;20028;-78
2023/02/27 06:07:41;;;;;;;;;;;3.70;66.20;;;2.35;53.16;101800.50;5011555;28;19931;-79
2023/02/27 06:10:13;;;;;;;;;;;3.70;66.20;;;2.38;53.06;101799.41;5005942;28;19976;-77
2023/02/27 06:12:42;;;;;;;;;;;3.70;66.20;;;2.28;53.34;101801.94;4995377;28;19937;-78
2023/02/27 06:15:09;;;;;;;;;;;3.70;66.30;;;2.26;53.18;101814.41;5011813;28;19932;-78
2023/02/27 06:17:37;;;;;;;;;;;3.70;66.30;;;2.24;53.31;101821.56;5007777;28;19933;-78
2023/02/27 06:20:05;;;;;;;;;;;3.60;66.30;;;2.26;53.45;101819.66;5011216;28;19971;-77
2023/02/27 06:22:32;;;;;;;;;;;3.60;66.30;;;2.22;53.45;101826.97;5011854;28;20738;-77
2023/02/27 06:24:59;;;;;;;;;;;3.60;66.60;;;2.27;53.68;101830.06;5010923;28;20398;-77
2023/02/27 06:27:26;;;;;;;;;;;3.60;66.90;;;2.30;53.74;101829.00;5011287;28;19929;-78
2023/02/27 06:29:56;;;;;;;;;;;3.60;67.10;;;2.33;53.67;101834.81;5011799;28;19929;-78
2023/02/27 06:32:24;;;;;;;;;;;3.60;67.10;;;2.29;53.85;101838.69;5003788;28;20048;-79
2023/02/27 06:34:51;;;;;;;;;;;3.60;67.20;;;2.33;54.04;101834.81;5010368;28;20011;-80
2023/02/27 06:37:18;;;;;;;;;;;3.60;67.60;;;2.35;53.94;101834.72;4998999;28;19959;-78
2023/02/27 06:39:45;;;;;;;;;;;3.60;67.70;;;2.33;54.13;101839.25;4993351;28;19932;-79
2023/02/27 06:42:12;;;;;;;;;;;3.60;67.90;;;2.35;54.11;101839.16;5011387;28;19929;-78
2023/02/27 06:44:39;;;;;;;;;;;3.60;67.70;;;2.36;53.82;101838.19;5010740;28;19932;-81
2023/02/27 06:47:08;;;;;;;;;;;3.60;67.70;;;2.33;54.31;101845.34;5002018;28;19939;-77
2023/02/27 06:49:35;;;;;;;;;;;3.60;67.90;;;2.33;54.39;101839.25;5002143;28;19925;-78
2023/02/27 06:52:02;;;;;;;;;;;3.70;67.90;;;2.34;54.37;101840.91;5010107;28;20151;-76
2023/02/27 06:54:29;;;;;;;;;;;3.60;67.90;;;2.30;54.41;101837.72;5012262;28;20019;-75
2023/02/27 06:56:56;;;;;;;;;;;3.60;67.90;;;2.36;54.43;101846.09;5004987;28;19937;-75
2023/02/27 06:59:23;;;;;;;;;;;3.70;68.10;;;2.32;54.70;101846.31;5004015;28;20109;-75
2023/02/27 07:01:50;;;;;;;;;;;3.70;68.30;;;2.35;54.89;101842.63;5003587;28;19926;-75
2023/02/27 07:04:18;;;;;;;;;;;3.70;68.60;;;2.38;54.81;101844.97;5000058;28;20302;-75
2023/02/27 07:06:45;;;;;;;;;;;3.70;68.60;;;2.41;54.89;101850.00;5009563;28;20012;-75
2023/02/27 07:09:12;;;;;;;;;;;3.70;68.70;;;2.44;54.77;101852.41;5009751;28;20486;-75
2023/02/27 07:11:39;;;;;;;;;;;3.70;68.70;;;2.45;54.86;101858.50;4991443;28;20388;-75
2023/02/27 07:14:06;;;;;;;;;;;3.70;68.70;;;2.46;55.04;101861.00;5011121;28;20042;-75
2023/02/27 07:16:33;;;;;;;;;;;3.70;68.80;;;2.49;55.00;101863.41;5006968;28;19930;-75
2023/02/27 07:19:00;;;;;;;;;;;3.80;68.90;;;2.53;55.27;101866.59;5009169;28;20397;-75
2023/02/27 07:21:28;;;;;;;;;;;3.80;69.30;;;2.60;55.28;101870.44;5007833;28;20474;-75
2023/02/27 07:23:55;;;;;;;;;;;3.70;69.50;;;2.61;55.03;101869.47;5000972;28;19949;-75
2023/02/27 07:26:22;;;;;;;;;;;3.70;69.70;;;2.62;55.01;101868.50;5006833;28;20266;-75
2023/02/27 07:28:49;;;;;;;;;;;3.80;69.50;;;2.59;55.39;101874.03;5008434;28;20405;-75
2023/02/27 07:31:16;;;;;;;;;;;3.80;69.80;;;2.61;55.35;101879.16;4991597;28;20377;-75
2023/02/27 07:33:43;;;;;;;;;;;3.80;69.60;;;2.61;55.22;101881.78;5010406;28;19996;-75
2023/02/27 07:36:10;;;;;;;;;;;3.80;69.70;;;2.63;55.84;101880.69;5009526;28;19948;-75
2023/02/27 07:38:38;;;;;;;;;;;3.80;70.20;;;2.64;55.74;101878.91;5008266;28;19929;-75
2023/02/27 07:41:05;;;;;;;;;;;3.70;70.30;;;2.69;55.58;101887.28;5009039;28;19925;-75
2023/02/27 07:43:32;;;;;;;;;;;3.80;70.30;;;2.64;55.73;101879.75;5010157;28;19929;-75
2023/02/27 07:46:02;;;;;;;;;;;3.80;70.30;;;2.64;56.09;101882.38;4993073;28;20378;-75
2023/02/27 07:48:29;;;;;;;;;;;3.80;70.70;;;2.67;55.92;101887.38;5001365;28;20051;-75
2023/02/27 07:50:57;;;;;;;;;;;3.80;70.70;;;2.64;56.16;101887.66;5004938;28;19925;-75
2023/02/27 07:53:24;;;;;;;;;;;3.80;70.80;;;2.69;55.78;101884.66;5006589;28;20028;-75
2023/02/27 07:55:52;;;;;;;;;;;3.80;70.90;;;2.72;56.15;101892.28;4991529;28;19933;-75
2023/02/27 07:58:19;;;;;;;;;;;3.80;71.00;;;2.77;56.32;101892.75;5008316;28;19929;-75
2023/02/27 08:00:46;;;;;;;;;;;3.80;71.10;;;2.80;56.16;101892.50;5007718;28;19929;-75
2023/02/27 08:03:13;;;;;;;;;;;3.90;71.10;;;2.85;56.24;101890.31;5008334;28;19929;-75
2023/02/27 08:05:40;;;;;;;;;;;3.90;71.10;;;2.80;56.14;101882.81;5008522;28;20016;-75
2023/02/27 08:08:07;;;;;;;;;;;3.90;71.00;;;2.84;56.27;101888.66;5000584;28;19929;-75
2023/02/27 08:10:34;;;;;;;;;;;3.90;71.00;;;2.89;55.87;101886.47;5009846;28;20381;-75
2023/02/27 08:13:03;;;;;;;;;;;3.90;71.10;;;2.86;56.10;101889.34;5009076;28;19926;-75
2023/02/27 08:15:31;;;;;;;;;;;3.90;70.90;;;2.82;56.35;101893.19;5008792;28;20648;-75
2023/02/27 08:17:58;;;;;;;;;;;3.90;71.30;;;2.84;56.34;101891.31;5007945;28;19925;-75
2023/02/27 08:20:25;;;;;;;;;;;3.90;71.20;;;2.84;56.21;101891.31;5007771;28;20017;-76
2023/02/27 08:22:52;;;;;;;;;;;3.90;71.00;;;2.85;56.03;101890.31;5009858;28;20321;-75
2023/02/27 08:25:20;;;;;;;;;;;3.90;71.30;;;2.86;56.36;101891.16;5009017;28;20016;-75
2023/02/27 08:27:47;;;;;;;;;;;3.90;71.30;;;2.84;55.78;101891.31;5009023;28;19980;-76
2023/02/27 08:30:16;;;;;;;;;;;3.90;70.90;;;2.79;56.08;101891.66;5007757;28;20016;-76
2023/02/27 08:32:44;;;;;;;;;;;3.90;71.00;;;2.80;56.28;101895.13;5009140;28;20340;-75
2023/02/27 08:35:11;;;;;;;;;;;3.90;71.10;;;2.85;56.50;101900.88;5006661;28;20363;-75
2023/02/27 08:37:38;;;;;;;;;;;3.90;71.30;;;2.89;56.36;101902.28;5004250;28;19953;-75
2023/02/27 08:40:09;;;;;;;;;;;4.00;71.30;;;2.96;56.31;101906.09;5004851;28;19929;-75
2023/02/27 08:42:37;;;;;;;;;;;4.00;71.30;;;3.00;56.20;101899.59;5008864;28;19979;-75
2023/02/27 08:45:05;;;;;;;;;;;4.00;71.20;;;3.03;56.01;101901.16;4987723;28;19933;-75
2023/02/27 08:47:33;;;;;;;;;;;4.10;71.30;;;3.05;56.08;101907.97;5008845;28;19926;-75
2023/02/27 08:50:00;;;;;;;;;;;4.10;71.30;;;3.00;56.65;101910.16;5008794;28;19929;-75
2023/02/27 08:52:27;;;;;;;;;;;4.10;71.30;;;3.05;56.57;101897.41;5009085;28;19936;-79
2023/02/27 08:54:54;;;;;;;;;;;4.20;71.30;;;3.09;56.48;101909.38;5009831;28;20453;-76
2023/02/27 08:57:21;;;;;;;;;;;4.20;71.30;;;3.13;56.40;101902.06;5007929;28;19933;-75
2023/02/27 08:59:48;;;;;;;;;;;4.20;71.30;;;3.10;56.60;101902.31;5006619;28;20313;-76
2023/02/27 09:02:15;;;;;;;;;;;4.20;71.10;;;3.14;56.39;101905.53;5002952;28;20425;-75
2023/02/27 09:04:44;;;;;;;;;;;4.20;71.30;;;3.08;56.47;101905.09;5006060;28;19930;-75
2023/02/27 09:07:11;;;;;;;;;;;4.20;71.10;;;3.05;56.74;101902.69;5006663;28;20329;-75
2023/02/27 09:09:38;;;;;;;;;;;4.20;71.30;;;3.05;56.79;101899.22;5007596;28;20024;-75
2023/02/27 09:12:05;;;;;;;;;;;4.20;71.30;;;3.01;56.71;101905.72;5007060;28;20047;-75
2023/02/27 09:14:32;;;;;;;;;;;4.20;71.00;;;2.95;56.40;101900.94;5006790;28;19957;-76
2023/02/27 09:16:59;;;;;;;;;;;4.20;71.00;;;3.00;56.37;101896.13;5007456;28;19935;-75
2023/02/27 09:19:26;;;;;;;;;;;4.20;71.20;;;3.12;56.28;101899.53;5006478;28;19934;-76
2023/02/27 09:21:55;;;;;;;;;;;4.20;71.10;;;3.16;56.03;101907.06;5008582;28;19936;-76
2023/02/27 09:24:22;;;;;;;;;;;4.20;71.10;;;2.95;56.50;101911.50;5008349;28;19926;-75
2023/02/27 09:26:50;;;;;;;;;;;4.20;70.80;;;2.89;56.02;101912.84;5008244;28;19976;-75
2023/02/27 09:29:18;;;;;;;;;;;4.20;70.40;;;2.88;56.63;101905.91;5005813;28;19926;-75
2023/02/27 09:31:45;;;;;;;;;;;4.20;70.80;;;2.96;56.21;101899.97;5009435;28;19960;-74
2023/02/27 09:34:12;;;;;;;;;;;4.20;70.90;;;2.98;56.14;101895.44;5007843;28;19936;-74
2023/02/27 09:36:39;;;;;;;;;;;4.20;71.00;;;3.07;56.41;101900.78;5008826;28;20032;-75
2023/02/27 09:39:08;;;;;;;;;;;4.20;71.10;;;2.99;56.70;101908.47;5006554;28;19936;-75
2023/02/27 09:41:57;;;;;;;;;;;4.20;70.90;;;3.03;56.59;101899.38;5018914;23;19936;-76
2023/02/27 09:44:31;;;;;;;;;;;4.20;71.10;;;3.07;56.73;101899.91;4967025;28;20302;-75
2023/02/27 09:46:58;;;;;;;;;;;4.30;71.10;;;3.12;56.59;101896.91;4967170;28;19932;-75
2023/02/27 09:49:30;;;;;;;;;;;4.30;70.90;;;3.10;55.93;101899.69;4967092;28;19930;-75
2023/02/27 09:51:57;;;;;;;;;;;4.30;70.50;;;3.09;55.84;101895.38;4951488;28;19966;-75
2023/02/27 09:54:30;;;;;;;;;;;4.30;70.30;;;3.17;55.78;101895.56;4951855;28;20417;-75
2023/02/27 09:57:01;;;;;;;;;;;4.30;70.30;;;3.26;56.03;101894.78;4958286;28;20458;-75
2023/02/27 09:59:34;;;;;;;;;;;4.30;70.80;;;3.30;56.12;101890.94;4942529;28;19953;-75
2023/02/27 10:02:09;;;;;;;;;;;4.40;70.70;;;3.32;55.91;101888.19;4951987;28;19933;-75
2023/02/27 10:04:42;;;;;;;;;;;4.40;70.70;;;3.23;55.55;101891.59;4950443;29;20030;-75
2023/02/27 10:07:15;;;;;;;;;;;4.40;70.10;;;3.15;55.47;101897.50;4954026;29;19930;-75
2023/02/27 10:09:52;;;;;;;;;;;4.40;69.50;;;3.11;55.71;101888.16;4948179;28;19981;-74
2023/02/27 10:12:39;;;;;;;;;;;4.40;69.80;;;3.22;55.96;101887.28;4953087;28;20017;-75
2023/02/27 10:15:12;;;;;;;;;;;4.40;70.30;;;3.23;55.52;101902.97;4946232;28;20026;-75
2023/02/27 10:17:47;;;;;;;;;;;4.40;69.70;;;3.29;55.54;101896.34;4954627;28;19926;-76
2023/02/27 10:20:24;;;;;;;;;;;4.40;69.90;;;3.28;54.81;101897.31;4952589;28;19934;-73
2023/02/27 10:22:52;;;;;;;;;;;4.40;69.30;;;3.28;55.19;101895.53;4948874;28;19931;-76
2023/02/27 10:25:21;;;;;;;;;;;4.50;69.70;;;3.40;54.93;101891.00;4945194;29;20021;-74
2023/02/27 10:27:50;;;;;;;;;;;4.50;69.90;;;3.44;55.18;101900.34;4945127;29;20379;-74
2023/02/27 10:30:22;;;;;;;;;;;4.50;69.80;;;3.33;54.70;101889.88;4950993;28;19942;-74
2023/02/27 10:32:51;;;;;;;;;;;4.60;69.10;;;3.38;54.92;101887.69;4935790;29;20009;-74
2023/02/27 10:35:26;;;;;;;;;;;4.60;69.30;;;3.34;54.85;101905.53;4948306;29;19993;-74
2023/02/27 10:37:57;;;;;;;;;;;4.60;69.10;;;3.34;54.54;101908.19;4950220;28;20058;-74
2023/02/27 10:40:26;;;;;;;;;;;4.50;69.00;;;3.16;55.11;101893.06;4950684;28;19936;-74
2023/02/27 10:42:56;;;;;;;;;;;4.50;68.70;;;3.17;54.58;101905.28;4952228;28;20671;-75
2023/02/27 10:45:23;;;;;;;;;;;4.50;68.50;;;3.24;55.25;101896.72;4952425;29;19981;-75
2023/02/27 10:47:50;;;;;;;;;;;4.50;69.20;;;3.36;55.17;101898.31;4949359;28;19926;-75
2023/02/27 10:50:22;;;;;;;;;;;4.50;69.50;;;3.41;54.70;101897.09;4952242;28;20387;-75
2023/02/27 10:52:50;;;;;;;;;;;4.60;69.10;;;3.43;54.22;101893.41;4940743;29;20029;-75
2023/02/27 10:55:22;;;;;;;;;;;4.60;68.50;;;3.44;54.30;101899.50;4953574;29;19935;-75
2023/02/27 10:57:50;;;;;;;;;;;4.60;68.50;;;3.51;54.38;101901.47;4945199;29;19930;-75
2023/02/27 11:00:30;;;;;;;;;;;4.70;68.40;;;3.58;54.34;101888.63;4943200;28;19927;-75
2023/02/27 11:03:00;;;;;;;;;;;4.70;68.50;;;3.67;54.63;101902.84;4952440;28;19985;-75
2023/02/27 11:05:28;;;;;;;;;;;4.80;68.90;;;3.69;54.38;101893.81;4949593;29;19941;-75
2023/02/27 11:07:57;;;;;;;;;;;4.80;68.50;;;3.73;54.39;101892.59;4953218;28;20288;-76
2023/02/27 11:10:26;;;;;;;;;;;4.90;68.50;;;3.74;53.95;101893.41;4950631;28;20342;-76
2023/02/27 11:13:03;;;;;;;;;;;4.90;68.40;;;3.81;54.06;101894.59;4947084;28;19926;-75
2023/02/27 11:15:32;;;;;;;;;;;4.90;68.30;;;3.87;53.57;101878.22;4946526;28;20851;-76
2023/02/27 11:18:19;;;;;;;;;;;4.90;68.00;;;3.93;53.45;101884.75;4951525;28;20028;-75
2023/02/27 11:20:49;;;;;;;;;;;5.00;68.10;;;3.96;53.01;101876.59;4951657;29;19937;-75
2023/02/27 11:23:19;;;;;;;;;;;5.00;67.30;;;3.99;53.15;101871.84;4952287;28;20094;-75
2023/02/27 11:25:46;;;;;;;;;;;5.00;67.50;;;3.99;53.34;101869.22;4952105;29;19937;-76
2023/02/27 11:28:22;;;;;;;;;;;5.10;67.50;;;4.08;52.89;101870.22;4953044;28;20407;-76
2023/02/27 11:30:56;;;;;;;;;;;5.10;67.50;;;4.09;52.72;101870.06;4952078;28;20390;-75
2023/02/27 11:33:24;;;;;;;;;;;5.10;67.00;;;4.12;52.40;101861.06;4952174;28;19930;-75
2023/02/27 11:35:52;;;;;;;;;;;5.20;66.70;;;4.12;52.29;101861.91;4936985;29;19957;-75
2023/02/27 11:38:23;;;;;;;;;;;5.20;66.20;;;4.12;52.13;101866.34;4938125;29;20306;-75